sensor_id;sensor_type;location;lat;lon;timestamp;pressure;altitude;pressure_sealevel;temperature;humidity
55540;BME280;41384;51.418;7.286;2022-09-12T00:01:58;100056.56;;;15.24;100.00
55540;BME280;41384;51.418;7.286;2022-09-12T00:04:24;100061.75;;;15.19;100.00
55540;BME280;41384;51.418;7.286;2022-09-12T00:06:51;100061.41;;;15.27;100.00
55540;BME280;41384;51.418;7.286;2022-09-12T00:09:16;100055.75;;;15.12;100.00
55540;BME280;41384;51.418;7.286;2022-09-12T00:11:44;100050.78;;;15.03;100.00
55540;BME280;41384;51.418;7.286;2022-09-12T00:14:12;100054.31;;;14.85;100.00
55540;BME280;41384;51.418;7.286;2022-09-12T00:16:38;100046.59;;;14.96;100.00
55540;BME280;41384;51.418;7.286;2022-09-12T00:19:04;100049.94;;;14.91;100.00
55540;BME280;41384;51.418;7.286;2022-09-12T00:21:32;100051.44;;;14.99;100.00
55540;BME280;41384;51.418;7.286;2022-09-12T00:23:57;100043.25;;;15.24;100.00
55540;BME280;41384;51.418;7.286;2022-09-12T00:26:23;100038.88;;;15.18;100.00
55540;BME280;41384;51.418;7.286;2022-09-12T00:28:49;100035.41;;;15.06;100.00
55540;BME280;41384;51.418;7.286;2022-09-12T00:31:17;100033.31;;;14.96;100.00
55540;BME280;41384;51.418;7.286;2022-09-12T00:33:43;100028.34;;;14.87;100.00
55540;BME280;41384;51.418;7.286;2022-09-12T00:36:20;100019.31;;;14.88;100.00
55540;BME280;41384;51.418;7.286;2022-09-12T00:38:46;100019.66;;;15.04;100.00
55540;BME280;41384;51.418;7.286;2022-09-12T00:41:20;100019.66;;;15.04;100.00
55540;BME280;41384;51.418;7.286;2022-09-12T00:43:51;100012.84;;;15.32;100.00
55540;BME280;41384;51.418;7.286;2022-09-12T00:46:40;100014.47;;;15.21;100.00
55540;BME280;41384;51.418;7.286;2022-09-12T00:49:15;100013.19;;;15.36;100.00
55540;BME280;41384;51.418;7.286;2022-09-12T00:51:51;100014.00;;;15.36;100.00
55540;BME280;41384;51.418;7.286;2022-09-12T00:54:22;100011.81;;;14.85;100.00
55540;BME280;41384;51.418;7.286;2022-09-12T00:56:50;100009.13;;;14.73;100.00
55540;BME280;41384;51.418;7.286;2022-09-12T00:59:22;99993.56;;;14.47;100.00
55540;BME280;41384;51.418;7.286;2022-09-12T01:01:49;100004.47;;;14.26;100.00
55540;BME280;41384;51.418;7.286;2022-09-12T01:04:17;99998.25;;;14.33;100.00
55540;BME280;41384;51.418;7.286;2022-09-12T01:06:45;99993.91;;;14.50;100.00
55540;BME280;41384;51.418;7.286;2022-09-12T01:09:13;99999.56;;;14.42;100.00
55540;BME280;41384;51.418;7.286;2022-09-12T01:11:40;99998.97;;;14.70;100.00
55540;BME280;41384;51.418;7.286;2022-09-12T01:14:06;99991.81;;;14.95;100.00
55540;BME280;41384;51.418;7.286;2022-09-12T01:16:36;99997.00;;;15.13;100.00
55540;BME280;41384;51.418;7.286;2022-09-12T01:25:08;99992.94;;;14.33;100.00
55540;BME280;41384;51.418;7.286;2022-09-12T01:38:30;99991.47;;;14.79;100.00
55540;BME280;41384;51.418;7.286;2022-09-12T01:44:03;99991.13;;;14.45;100.00
55540;BME280;41384;51.418;7.286;2022-09-12T01:46:42;99988.88;;;14.61;100.00
55540;BME280;41384;51.418;7.286;2022-09-12T01:49:30;99994.78;;;14.63;100.00
55540;BME280;41384;51.418;7.286;2022-09-12T01:52:27;99987.91;;;14.85;100.00
55540;BME280;41384;51.418;7.286;2022-09-12T01:54:54;99991.06;;;14.64;100.00
55540;BME280;41384;51.418;7.286;2022-09-12T01:57:27;99988.16;;;14.53;100.00
55540;BME280;41384;51.418;7.286;2022-09-12T01:59:58;99986.66;;;14.57;100.00
55540;BME280;41384;51.418;7.286;2022-09-12T02:02:38;99980.16;;;14.41;100.00
55540;BME280;41384;51.418;7.286;2022-09-12T02:05:08;99978.25;;;14.18;100.00
55540;BME280;41384;51.418;7.286;2022-09-12T02:07:45;99976.59;;;14.05;100.00
55540;BME280;41384;51.418;7.286;2022-09-12T02:10:21;99977.47;;;13.99;100.00
55540;BME280;41384;51.418;7.286;2022-09-12T02:15:17;99969.88;;;14.45;100.00
55540;BME280;41384;51.418;7.286;2022-09-12T02:17:48;99966.78;;;14.06;100.00
55540;BME280;41384;51.418;7.286;2022-09-12T02:20:25;99961.28;;;14.19;100.00
55540;BME280;41384;51.418;7.286;2022-09-12T02:22:53;99969.75;;;13.97;100.00
55540;BME280;41384;51.418;7.286;2022-09-12T02:25:20;99965.63;;;14.01;100.00
55540;BME280;41384;51.418;7.286;2022-09-12T02:27:58;99970.47;;;14.05;100.00
55540;BME280;41384;51.418;7.286;2022-09-12T02:30:28;99959.81;;;14.23;100.00
55540;BME280;41384;51.418;7.286;2022-09-12T02:33:06;99967.44;;;14.32;100.00
55540;BME280;41384;51.418;7.286;2022-09-12T02:35:48;99970.75;;;14.15;100.00
55540;BME280;41384;51.418;7.286;2022-09-12T02:38:34;99968.13;;;13.96;100.00
55540;BME280;41384;51.418;7.286;2022-09-12T02:41:02;99962.84;;;14.39;100.00
55540;BME280;41384;51.418;7.286;2022-09-12T02:43:28;99966.50;;;14.26;100.00
55540;BME280;41384;51.418;7.286;2022-09-12T02:45:53;99962.94;;;14.32;100.00
55540;BME280;41384;51.418;7.286;2022-09-12T02:48:23;99971.38;;;14.41;100.00
55540;BME280;41384;51.418;7.286;2022-09-12T02:50:50;99960.66;;;14.48;100.00
55540;BME280;41384;51.418;7.286;2022-09-12T02:53:16;99961.34;;;14.43;100.00
55540;BME280;41384;51.418;7.286;2022-09-12T02:55:42;99951.53;;;14.55;100.00
55540;BME280;41384;51.418;7.286;2022-09-12T02:58:12;99952.13;;;14.45;100.00
55540;BME280;41384;51.418;7.286;2022-09-12T03:04:01;99943.31;;;14.33;100.00
55540;BME280;41384;51.418;7.286;2022-09-12T03:09:14;99938.72;;;14.52;100.00
55540;BME280;41384;51.418;7.286;2022-09-12T03:11:52;99934.56;;;14.56;100.00
55540;BME280;41384;51.418;7.286;2022-09-12T03:14:41;99934.84;;;14.67;100.00
55540;BME280;41384;51.418;7.286;2022-09-12T03:18:05;99940.56;;;14.28;100.00
55540;BME280;41384;51.418;7.286;2022-09-12T03:20:09;99934.53;;;14.33;100.00
55540;BME280;41384;51.418;7.286;2022-09-12T03:25:16;99936.09;;;14.64;100.00
55540;BME280;41384;51.418;7.286;2022-09-12T03:27:54;99936.91;;;14.65;100.00
55540;BME280;41384;51.418;7.286;2022-09-12T03:30:21;99936.41;;;14.44;100.00
55540;BME280;41384;51.418;7.286;2022-09-12T03:32:52;99934.41;;;14.27;100.00
55540;BME280;41384;51.418;7.286;2022-09-12T03:35:20;99932.19;;;14.12;100.00
55540;BME280;41384;51.418;7.286;2022-09-12T03:37:47;99935.78;;;14.18;100.00
55540;BME280;41384;51.418;7.286;2022-09-12T03:40:13;99933.84;;;14.25;100.00
55540;BME280;41384;51.418;7.286;2022-09-12T03:42:40;99938.19;;;14.08;100.00
55540;BME280;41384;51.418;7.286;2022-09-12T03:45:06;99932.13;;;14.43;100.00
55540;BME280;41384;51.418;7.286;2022-09-12T03:47:31;99937.09;;;14.51;100.00
55540;BME280;41384;51.418;7.286;2022-09-12T03:49:57;99931.22;;;14.49;100.00
55540;BME280;41384;51.418;7.286;2022-09-12T03:52:22;99938.94;;;14.39;100.00
55540;BME280;41384;51.418;7.286;2022-09-12T03:54:48;99939.28;;;14.30;100.00
55540;BME280;41384;51.418;7.286;2022-09-12T03:57:14;99934.75;;;14.19;100.00
55540;BME280;41384;51.418;7.286;2022-09-12T03:59:39;99935.28;;;14.09;100.00
55540;BME280;41384;51.418;7.286;2022-09-12T04:02:04;99932.53;;;14.16;100.00
55540;BME280;41384;51.418;7.286;2022-09-12T04:04:30;99939.47;;;14.17;100.00
55540;BME280;41384;51.418;7.286;2022-09-12T04:06:55;99925.19;;;14.30;100.00
55540;BME280;41384;51.418;7.286;2022-09-12T04:09:21;99930.16;;;14.26;100.00
55540;BME280;41384;51.418;7.286;2022-09-12T04:11:46;99935.66;;;14.13;100.00
55540;BME280;41384;51.418;7.286;2022-09-12T04:14:11;99931.63;;;14.22;100.00
55540;BME280;41384;51.418;7.286;2022-09-12T04:16:37;99926.25;;;14.41;100.00
55540;BME280;41384;51.418;7.286;2022-09-12T04:19:02;99925.56;;;14.45;100.00
55540;BME280;41384;51.418;7.286;2022-09-12T04:21:28;99931.66;;;14.34;100.00
55540;BME280;41384;51.418;7.286;2022-09-12T04:23:53;99929.94;;;14.40;100.00
55540;BME280;41384;51.418;7.286;2022-09-12T04:26:19;99931.09;;;14.32;100.00
55540;BME280;41384;51.418;7.286;2022-09-12T04:28:45;99926.34;;;14.46;100.00
55540;BME280;41384;51.418;7.286;2022-09-12T04:31:15;99929.28;;;14.68;100.00
55540;BME280;41384;51.418;7.286;2022-09-12T04:33:47;99920.97;;;14.65;100.00
55540;BME280;41384;51.418;7.286;2022-09-12T04:36:15;99922.34;;;14.43;100.00
55540;BME280;41384;51.418;7.286;2022-09-12T04:38:42;99929.56;;;14.24;100.00
55540;BME280;41384;51.418;7.286;2022-09-12T04:41:13;99918.75;;;14.50;100.00
55540;BME280;41384;51.418;7.286;2022-09-12T04:43:39;99917.59;;;14.57;100.00
55540;BME280;41384;51.418;7.286;2022-09-12T04:46:07;99916.59;;;14.58;100.00
55540;BME280;41384;51.418;7.286;2022-09-12T04:48:32;99912.56;;;14.92;100.00
55540;BME280;41384;51.418;7.286;2022-09-12T04:51:18;99906.66;;;14.90;100.00
55540;BME280;41384;51.418;7.286;2022-09-12T04:53:48;99916.25;;;14.79;100.00
55540;BME280;41384;51.418;7.286;2022-09-12T04:56:13;99908.06;;;14.80;100.00
55540;BME280;41384;51.418;7.286;2022-09-12T04:58:39;99908.47;;;14.65;100.00
55540;BME280;41384;51.418;7.286;2022-09-12T05:01:10;99909.63;;;14.57;100.00
55540;BME280;41384;51.418;7.286;2022-09-12T05:03:36;99914.16;;;14.69;100.00
55540;BME280;41384;51.418;7.286;2022-09-12T05:06:06;99904.31;;;14.69;100.00
55540;BME280;41384;51.418;7.286;2022-09-12T05:08:32;99907.13;;;14.74;100.00
55540;BME280;41384;51.418;7.286;2022-09-12T05:11:06;99904.81;;;15.02;100.00
55540;BME280;41384;51.418;7.286;2022-09-12T05:13:33;99903.19;;;15.01;100.00
55540;BME280;41384;51.418;7.286;2022-09-12T05:16:00;99903.97;;;15.25;98.64
55540;BME280;41384;51.418;7.286;2022-09-12T05:18:26;99905.38;;;15.04;99.74
55540;BME280;41384;51.418;7.286;2022-09-12T05:20:52;99901.34;;;14.90;100.00
55540;BME280;41384;51.418;7.286;2022-09-12T05:23:17;99899.38;;;15.09;100.00
55540;BME280;41384;51.418;7.286;2022-09-12T05:25:50;99893.13;;;14.91;100.00
55540;BME280;41384;51.418;7.286;2022-09-12T05:28:17;99897.59;;;15.14;100.00
55540;BME280;41384;51.418;7.286;2022-09-12T05:30:42;99891.59;;;15.19;99.15
55540;BME280;41384;51.418;7.286;2022-09-12T05:33:08;99895.09;;;14.96;100.00
55540;BME280;41384;51.418;7.286;2022-09-12T05:35:33;99886.88;;;15.50;96.62
55540;BME280;41384;51.418;7.286;2022-09-12T05:37:58;99889.94;;;15.30;98.20
55540;BME280;41384;51.418;7.286;2022-09-12T05:40:24;99890.47;;;15.03;100.00
55540;BME280;41384;51.418;7.286;2022-09-12T05:42:49;99887.91;;;15.08;100.00
55540;BME280;41384;51.418;7.286;2022-09-12T05:45:14;99885.75;;;15.34;99.32
55540;BME280;41384;51.418;7.286;2022-09-12T05:47:40;99888.78;;;15.26;100.00
55540;BME280;41384;51.418;7.286;2022-09-12T05:50:08;99882.88;;;15.36;99.10
55540;BME280;41384;51.418;7.286;2022-09-12T05:52:35;99888.84;;;15.55;98.26
55540;BME280;41384;51.418;7.286;2022-09-12T05:55:01;99882.53;;;15.32;98.81
55540;BME280;41384;51.418;7.286;2022-09-12T05:57:26;99889.31;;;15.52;98.73
55540;BME280;41384;51.418;7.286;2022-09-12T05:59:51;99891.75;;;15.41;100.00
55540;BME280;41384;51.418;7.286;2022-09-12T06:02:17;99892.38;;;15.31;100.00
55540;BME280;41384;51.418;7.286;2022-09-12T06:04:42;99898.13;;;15.40;100.00
55540;BME280;41384;51.418;7.286;2022-09-12T06:07:07;99892.88;;;15.57;99.78
55540;BME280;41384;51.418;7.286;2022-09-12T06:09:33;99890.47;;;15.56;99.17
55540;BME280;41384;51.418;7.286;2022-09-12T06:11:58;99895.06;;;15.60;99.14
55540;BME280;41384;51.418;7.286;2022-09-12T06:14:24;99893.56;;;15.82;96.51
55540;BME280;41384;51.418;7.286;2022-09-12T06:16:49;99887.97;;;15.95;97.41
55540;BME280;41384;51.418;7.286;2022-09-12T06:19:19;99893.78;;;15.92;97.83
55540;BME280;41384;51.418;7.286;2022-09-12T06:21:46;99895.53;;;15.57;99.78
55540;BME280;41384;51.418;7.286;2022-09-12T06:24:15;99894.84;;;15.91;97.56
55540;BME280;41384;51.418;7.286;2022-09-12T06:26:41;99897.28;;;16.10;96.04
55540;BME280;41384;51.418;7.286;2022-09-12T06:29:08;99895.69;;;16.26;94.70
55540;BME280;41384;51.418;7.286;2022-09-12T06:31:36;99894.53;;;16.04;96.79
55540;BME280;41384;51.418;7.286;2022-09-12T06:34:05;99896.69;;;16.08;96.95
55540;BME280;41384;51.418;7.286;2022-09-12T06:36:32;99897.44;;;16.37;94.84
55540;BME280;41384;51.418;7.286;2022-09-12T06:39:01;99902.69;;;16.49;94.13
55540;BME280;41384;51.418;7.286;2022-09-12T06:41:28;99912.16;;;16.40;94.83
55540;BME280;41384;51.418;7.286;2022-09-12T06:43:55;99901.25;;;16.41;94.61
55540;BME280;41384;51.418;7.286;2022-09-12T06:46:21;99898.16;;;16.32;95.12
55540;BME280;41384;51.418;7.286;2022-09-12T06:48:47;99898.56;;;16.41;93.91
55540;BME280;41384;51.418;7.286;2022-09-12T06:51:14;99898.09;;;16.61;93.22
55540;BME280;41384;51.418;7.286;2022-09-12T06:53:41;99895.16;;;16.63;93.28
55540;BME280;41384;51.418;7.286;2022-09-12T06:58:36;99889.88;;;16.29;95.87
55540;BME280;41384;51.418;7.286;2022-09-12T07:01:05;99889.34;;;16.66;95.47
55540;BME280;41384;51.418;7.286;2022-09-12T07:03:32;99899.03;;;16.72;94.15
55540;BME280;41384;51.418;7.286;2022-09-12T07:06:09;99901.16;;;16.53;94.74
55540;BME280;41384;51.418;7.286;2022-09-12T07:08:35;99898.13;;;16.84;92.94
55540;BME280;41384;51.418;7.286;2022-09-12T07:11:17;99896.53;;;16.66;95.06
55540;BME280;41384;51.418;7.286;2022-09-12T07:13:45;99897.91;;;16.68;96.41
55540;BME280;41384;51.418;7.286;2022-09-12T07:16:11;99904.38;;;16.55;97.83
55540;BME280;41384;51.418;7.286;2022-09-12T07:18:38;99905.75;;;16.58;97.79
55540;BME280;41384;51.418;7.286;2022-09-12T07:21:06;99911.47;;;16.67;97.18
55540;BME280;41384;51.418;7.286;2022-09-12T07:23:32;99908.88;;;16.89;96.38
55540;BME280;41384;51.418;7.286;2022-09-12T07:25:58;99903.78;;;16.87;97.31
55540;BME280;41384;51.418;7.286;2022-09-12T07:28:25;99905.16;;;16.73;98.21
55540;BME280;41384;51.418;7.286;2022-09-12T07:30:51;99907.50;;;17.03;96.85
55540;BME280;41384;51.418;7.286;2022-09-12T07:33:19;99907.28;;;17.10;96.32
55540;BME280;41384;51.418;7.286;2022-09-12T07:35:44;99916.13;;;17.33;94.95
55540;BME280;41384;51.418;7.286;2022-09-12T07:38:10;99911.84;;;17.32;95.60
55540;BME280;41384;51.418;7.286;2022-09-12T07:40:35;99910.78;;;17.33;96.16
55540;BME280;41384;51.418;7.286;2022-09-12T07:43:00;99908.91;;;17.33;96.09
55540;BME280;41384;51.418;7.286;2022-09-12T07:45:26;99912.97;;;17.36;96.47
55540;BME280;41384;51.418;7.286;2022-09-12T07:47:54;99899.28;;;17.32;98.30
55540;BME280;41384;51.418;7.286;2022-09-12T07:50:19;99891.41;;;17.43;97.29
55540;BME280;41384;51.418;7.286;2022-09-12T07:52:45;99892.56;;;17.25;99.01
55540;BME280;41384;51.418;7.286;2022-09-12T07:55:10;99892.16;;;17.38;98.22
55540;BME280;41384;51.418;7.286;2022-09-12T07:57:36;99887.44;;;17.45;98.00
55540;BME280;41384;51.418;7.286;2022-09-12T08:00:02;99889.84;;;17.47;98.26
55540;BME280;41384;51.418;7.286;2022-09-12T08:02:28;99892.91;;;17.33;97.63
55540;BME280;41384;51.418;7.286;2022-09-12T08:04:53;99898.50;;;17.32;98.20
55540;BME280;41384;51.418;7.286;2022-09-12T08:07:19;99904.19;;;17.41;96.40
55540;BME280;41384;51.418;7.286;2022-09-12T08:09:44;99897.16;;;17.57;96.31
55540;BME280;41384;51.418;7.286;2022-09-12T08:12:10;99900.41;;;17.59;95.94
55540;BME280;41384;51.418;7.286;2022-09-12T08:14:35;99902.47;;;17.52;96.42
55540;BME280;41384;51.418;7.286;2022-09-12T08:17:00;99906.47;;;17.54;96.35
55540;BME280;41384;51.418;7.286;2022-09-12T08:19:26;99904.91;;;17.58;96.86
55540;BME280;41384;51.418;7.286;2022-09-12T08:21:51;99907.44;;;17.70;95.83
55540;BME280;41384;51.418;7.286;2022-09-12T08:24:16;99908.59;;;17.52;96.35
55540;BME280;41384;51.418;7.286;2022-09-12T08:26:42;99914.28;;;17.61;96.14
55540;BME280;41384;51.418;7.286;2022-09-12T08:29:07;99915.63;;;17.63;95.70
55540;BME280;41384;51.418;7.286;2022-09-12T08:31:33;99916.09;;;17.83;95.04
55540;BME280;41384;51.418;7.286;2022-09-12T08:34:02;99917.16;;;17.82;95.08
55540;BME280;41384;51.418;7.286;2022-09-12T08:36:28;99918.59;;;17.89;94.12
55540;BME280;41384;51.418;7.286;2022-09-12T08:38:59;99916.75;;;17.95;94.51
55540;BME280;41384;51.418;7.286;2022-09-12T08:41:31;99914.09;;;17.95;94.14
55540;BME280;41384;51.418;7.286;2022-09-12T08:44:15;99913.41;;;18.05;94.20
55540;BME280;41384;51.418;7.286;2022-09-12T08:49:40;99906.25;;;18.11;94.03
55540;BME280;41384;51.418;7.286;2022-09-12T08:52:21;99903.69;;;18.21;93.29
55540;BME280;41384;51.418;7.286;2022-09-12T08:54:47;99901.53;;;18.18;92.52
55540;BME280;41384;51.418;7.286;2022-09-12T08:57:14;99908.00;;;18.27;92.33
55540;BME280;41384;51.418;7.286;2022-09-12T08:59:41;99900.84;;;18.38;92.39
55540;BME280;41384;51.418;7.286;2022-09-12T09:16:30;99890.91;;;18.66;89.79
55540;BME280;41384;51.418;7.286;2022-09-12T09:19:00;99891.47;;;18.73;89.36
55540;BME280;41384;51.418;7.286;2022-09-12T09:21:35;99897.41;;;18.80;88.88
55540;BME280;41384;51.418;7.286;2022-09-12T09:24:10;99891.59;;;18.94;87.05
55540;BME280;41384;51.418;7.286;2022-09-12T09:26:48;99898.41;;;18.69;87.56
55540;BME280;41384;51.418;7.286;2022-09-12T09:29:20;99899.53;;;18.78;86.27
55540;BME280;41384;51.418;7.286;2022-09-12T09:31:50;99902.44;;;18.77;86.48
55540;BME280;41384;51.418;7.286;2022-09-12T09:34:21;99904.59;;;18.80;85.27
55540;BME280;41384;51.418;7.286;2022-09-12T09:42:58;99902.50;;;18.87;83.56
55540;BME280;41384;51.418;7.286;2022-09-12T09:45:27;99903.56;;;18.86;84.10
55540;BME280;41384;51.418;7.286;2022-09-12T09:48:06;99891.41;;;19.06;83.32
55540;BME280;41384;51.418;7.286;2022-09-12T09:50:37;99896.44;;;18.97;83.40
55540;BME280;41384;51.418;7.286;2022-09-12T09:53:03;99890.03;;;18.98;83.63
55540;BME280;41384;51.418;7.286;2022-09-12T09:55:37;99887.94;;;19.16;82.50
55540;BME280;41384;51.418;7.286;2022-09-12T09:58:03;99879.41;;;19.24;83.29
55540;BME280;41384;51.418;7.286;2022-09-12T10:00:31;99876.78;;;19.34;82.37
55540;BME280;41384;51.418;7.286;2022-09-12T10:05:43;99872.03;;;19.52;80.67
55540;BME280;41384;51.418;7.286;2022-09-12T10:08:09;99869.06;;;19.59;79.17
55540;BME280;41384;51.418;7.286;2022-09-12T10:13:33;99868.28;;;19.48;78.97
55540;BME280;41384;51.418;7.286;2022-09-12T10:16:06;99861.03;;;19.48;79.47
55540;BME280;41384;51.418;7.286;2022-09-12T10:18:41;99869.88;;;19.49;79.80
55540;BME280;41384;51.418;7.286;2022-09-12T10:23:38;99859.97;;;19.60;77.03
55540;BME280;41384;51.418;7.286;2022-09-12T10:26:10;99863.47;;;19.65;76.01
55540;BME280;41384;51.418;7.286;2022-09-12T10:28:42;99865.63;;;19.58;76.59
55540;BME280;41384;51.418;7.286;2022-09-12T10:31:16;99864.28;;;19.66;76.22
55540;BME280;41384;51.418;7.286;2022-09-12T10:33:51;99863.22;;;19.82;75.14
55540;BME280;41384;51.418;7.286;2022-09-12T10:36:18;99853.84;;;19.85;77.03
55540;BME280;41384;51.418;7.286;2022-09-12T10:38:52;99851.47;;;19.89;76.88
55540;BME280;41384;51.418;7.286;2022-09-12T10:41:18;99854.97;;;19.94;74.20
55540;BME280;41384;51.418;7.286;2022-09-12T10:43:46;99850.94;;;20.07;72.41
55540;BME280;41384;51.418;7.286;2022-09-12T10:51:27;99846.63;;;20.27;71.42
55540;BME280;41384;51.418;7.286;2022-09-12T10:54:04;99840.47;;;20.21;72.86
55540;BME280;41384;51.418;7.286;2022-09-12T10:56:32;99839.66;;;20.26;73.11
55540;BME280;41384;51.418;7.286;2022-09-12T10:59:16;99832.19;;;20.18;72.53
55540;BME280;41384;51.418;7.286;2022-09-12T11:02:00;99828.41;;;20.29;72.33
55540;BME280;41384;51.418;7.286;2022-09-12T11:04:37;99828.16;;;20.15;73.60
55540;BME280;41384;51.418;7.286;2022-09-12T11:18:48;99808.25;;;20.58;69.39
55540;BME280;41384;51.418;7.286;2022-09-12T11:26:46;99808.88;;;21.05;66.27
55540;BME280;41384;51.418;7.286;2022-09-12T11:35:09;99806.69;;;21.12;66.39
55540;BME280;41384;51.418;7.286;2022-09-12T11:38:02;99801.06;;;21.08;65.92
55540;BME280;41384;51.418;7.286;2022-09-12T11:40:49;99793.69;;;21.29;65.65
55540;BME280;41384;51.418;7.286;2022-09-12T11:43:23;99796.19;;;21.21;64.11
55540;BME280;41384;51.418;7.286;2022-09-12T11:45:56;99796.09;;;21.36;63.21
55540;BME280;41384;51.418;7.286;2022-09-12T11:48:37;99800.09;;;21.39;63.16
55540;BME280;41384;51.418;7.286;2022-09-12T11:51:10;99792.28;;;21.42;62.72
55540;BME280;41384;51.418;7.286;2022-09-12T11:53:42;99792.94;;;21.24;64.04
55540;BME280;41384;51.418;7.286;2022-09-12T11:56:16;99790.91;;;21.45;61.80
55540;BME280;41384;51.418;7.286;2022-09-12T11:58:48;99788.94;;;21.21;62.96
55540;BME280;41384;51.418;7.286;2022-09-12T12:01:23;99785.88;;;21.38;63.50
55540;BME280;41384;51.418;7.286;2022-09-12T12:03:51;99795.50;;;21.45;62.99
55540;BME280;41384;51.418;7.286;2022-09-12T12:06:32;99786.50;;;21.60;61.19
55540;BME280;41384;51.418;7.286;2022-09-12T12:09:03;99781.13;;;21.60;61.84
55540;BME280;41384;51.418;7.286;2022-09-12T12:11:41;99776.72;;;21.79;60.26
55540;BME280;41384;51.418;7.286;2022-09-12T12:14:24;99770.50;;;21.84;59.19
55540;BME280;41384;51.418;7.286;2022-09-12T12:16:50;99778.75;;;21.58;60.62
55540;BME280;41384;51.418;7.286;2022-09-12T12:21:49;99771.47;;;21.58;61.03
55540;BME280;41384;51.418;7.286;2022-09-12T12:24:18;99779.00;;;21.56;62.74
55540;BME280;41384;51.418;7.286;2022-09-12T12:27:02;99776.53;;;21.70;60.34
55540;BME280;41384;51.418;7.286;2022-09-12T12:34:35;99768.03;;;21.53;60.40
55540;BME280;41384;51.418;7.286;2022-09-12T12:47:46;99746.03;;;21.85;59.11
55540;BME280;41384;51.418;7.286;2022-09-12T12:52:47;99739.94;;;22.04;56.01
55540;BME280;41384;51.418;7.286;2022-09-12T12:55:27;99734.56;;;22.04;57.01
55540;BME280;41384;51.418;7.286;2022-09-12T12:57:56;99732.63;;;22.10;56.57
55540;BME280;41384;51.418;7.286;2022-09-12T13:02:51;99723.19;;;22.12;56.62
55540;BME280;41384;51.418;7.286;2022-09-12T13:05:21;99717.94;;;22.02;55.61
55540;BME280;41384;51.418;7.286;2022-09-12T13:07:53;99716.53;;;22.05;56.54
55540;BME280;41384;51.418;7.286;2022-09-12T13:10:24;99710.16;;;22.25;55.82
55540;BME280;41384;51.418;7.286;2022-09-12T13:12:54;99710.09;;;22.30;54.50
55540;BME280;41384;51.418;7.286;2022-09-12T13:15:48;99711.16;;;22.29;53.90
55540;BME280;41384;51.418;7.286;2022-09-12T13:18:22;99708.78;;;22.27;53.64
55540;BME280;41384;51.418;7.286;2022-09-12T13:23:30;99709.94;;;22.21;53.51
55540;BME280;41384;51.418;7.286;2022-09-12T13:25:58;99701.75;;;22.07;55.25
55540;BME280;41384;51.418;7.286;2022-09-12T13:28:25;99703.03;;;22.34;54.22
55540;BME280;41384;51.418;7.286;2022-09-12T13:31:20;99692.41;;;22.24;54.44
55540;BME280;41384;51.418;7.286;2022-09-12T13:33:54;99694.75;;;22.30;53.96
55540;BME280;41384;51.418;7.286;2022-09-12T13:39:13;99694.91;;;22.39;53.31
55540;BME280;41384;51.418;7.286;2022-09-12T13:44:25;99686.25;;;22.23;53.50
55540;BME280;41384;51.418;7.286;2022-09-12T13:46:51;99687.94;;;22.38;52.24
55540;BME280;41384;51.418;7.286;2022-09-12T13:52:02;99677.75;;;22.35;52.40
55540;BME280;41384;51.418;7.286;2022-09-12T13:54:29;99678.13;;;22.28;52.18
55540;BME280;41384;51.418;7.286;2022-09-12T13:56:55;99689.84;;;22.13;54.25
55540;BME280;41384;51.418;7.286;2022-09-12T13:59:21;99674.81;;;22.12;53.37
55540;BME280;41384;51.418;7.286;2022-09-12T14:01:47;99682.69;;;22.28;52.84
55540;BME280;41384;51.418;7.286;2022-09-12T14:04:15;99680.88;;;22.23;53.24
55540;BME280;41384;51.418;7.286;2022-09-12T14:07:08;99675.00;;;22.40;53.49
55540;BME280;41384;51.418;7.286;2022-09-12T14:09:41;99682.22;;;22.21;52.58
55540;BME280;41384;51.418;7.286;2022-09-12T14:12:22;99672.13;;;22.12;53.76
55540;BME280;41384;51.418;7.286;2022-09-12T14:14:49;99675.78;;;22.22;54.83
55540;BME280;41384;51.418;7.286;2022-09-12T14:17:23;99672.00;;;22.23;53.73
55540;BME280;41384;51.418;7.286;2022-09-12T14:19:49;99681.97;;;22.22;53.05
55540;BME280;41384;51.418;7.286;2022-09-12T14:22:16;99672.88;;;22.18;54.09
55540;BME280;41384;51.418;7.286;2022-09-12T14:24:44;99662.34;;;22.22;54.18
55540;BME280;41384;51.418;7.286;2022-09-12T14:27:27;99668.09;;;22.34;53.97
55540;BME280;41384;51.418;7.286;2022-09-12T14:30:02;99662.41;;;22.16;53.23
55540;BME280;41384;51.418;7.286;2022-09-12T14:32:31;99659.38;;;22.42;52.17
55540;BME280;41384;51.418;7.286;2022-09-12T14:35:17;99652.03;;;22.29;51.89
55540;BME280;41384;51.418;7.286;2022-09-12T14:37:45;99651.38;;;22.37;51.37
55540;BME280;41384;51.418;7.286;2022-09-12T14:40:18;99648.47;;;22.34;52.19
55540;BME280;41384;51.418;7.286;2022-09-12T14:42:44;99645.78;;;22.34;51.32
55540;BME280;41384;51.418;7.286;2022-09-12T14:45:23;99651.16;;;22.34;52.13
55540;BME280;41384;51.418;7.286;2022-09-12T14:47:49;99644.53;;;22.50;51.81
55540;BME280;41384;51.418;7.286;2022-09-12T14:50:22;99643.44;;;22.27;52.01
55540;BME280;41384;51.418;7.286;2022-09-12T14:55:30;99633.78;;;22.26;51.91
55540;BME280;41384;51.418;7.286;2022-09-12T14:58:26;99628.47;;;22.21;52.26
55540;BME280;41384;51.418;7.286;2022-09-12T15:00:56;99613.88;;;22.27;51.28
55540;BME280;41384;51.418;7.286;2022-09-12T15:03:25;99619.91;;;22.19;51.81
55540;BME280;41384;51.418;7.286;2022-09-12T15:05:51;99610.59;;;22.30;51.06
55540;BME280;41384;51.418;7.286;2022-09-12T15:08:17;99618.03;;;22.19;51.60
55540;BME280;41384;51.418;7.286;2022-09-12T15:10:42;99614.31;;;22.15;51.14
55540;BME280;41384;51.418;7.286;2022-09-12T15:15:33;99610.69;;;22.25;50.88
55540;BME280;41384;51.418;7.286;2022-09-12T15:17:59;99610.41;;;22.26;50.34
55540;BME280;41384;51.418;7.286;2022-09-12T15:20:24;99609.66;;;22.21;50.91
55540;BME280;41384;51.418;7.286;2022-09-12T15:22:50;99610.91;;;22.28;50.18